createdAt,value
2022-07-31T00:00:29.971Z,55.85
2022-07-31T00:02:59.250Z,56.09
2022-07-31T00:05:27.058Z,56.26
2022-07-31T00:07:54.980Z,56.46
2022-07-31T00:10:22.752Z,56.58
2022-07-31T00:12:50.265Z,56.45
2022-07-31T00:15:18.419Z,57.03
2022-07-31T00:17:46.367Z,56.82
2022-07-31T00:20:15.827Z,57.77
2022-07-31T00:22:47.285Z,57.88
2022-07-31T00:25:16.513Z,58.06
2022-07-31T00:27:43.997Z,57.88
2022-07-31T00:30:17.147Z,57.98
2022-07-31T00:32:46.035Z,57.96
2022-07-31T00:35:14.460Z,57.85
2022-07-31T00:37:44.754Z,58.40
2022-07-31T00:40:17.123Z,59.30
2022-07-31T00:42:44.940Z,58.88
2022-07-31T00:45:13.678Z,59.04
2022-07-31T00:47:42.018Z,59.37
2022-07-31T00:50:10.466Z,59.10
2022-07-31T00:52:38.943Z,59.12
2022-07-31T00:55:06.897Z,58.81
2022-07-31T00:57:34.395Z,58.24
2022-07-31T01:00:01.951Z,58.17
2022-07-31T01:02:31.911Z,57.47
2022-07-31T01:04:59.635Z,57.78
2022-07-31T01:07:27.073Z,57.76
2022-07-31T01:09:55.763Z,57.90
2022-07-31T01:12:38.956Z,60.53
2022-07-31T01:15:09.641Z,58.79
2022-07-31T01:17:39.025Z,57.01
2022-07-31T01:20:08.870Z,57.36
2022-07-31T01:23:01.162Z,59.23
2022-07-31T01:25:54.553Z,58.32
2022-07-31T01:29:05.208Z,58.60
2022-07-31T01:31:57.888Z,58.71
2022-07-31T01:34:50.301Z,58.50
2022-07-31T01:37:21.744Z,55.47
2022-07-31T01:40:04.316Z,57.51
2022-07-31T01:42:37.060Z,56.82
2022-07-31T01:45:07.562Z,56.48
2022-07-31T01:47:36.103Z,56.11
2022-07-31T01:50:05.906Z,56.44
2022-07-31T01:52:33.733Z,55.48
2022-07-31T01:55:03.151Z,55.26
2022-07-31T01:57:35.653Z,54.64
2022-07-31T02:00:33.899Z,54.81
2022-07-31T02:03:04.974Z,53.64
2022-07-31T02:05:40.830Z,54.02
2022-07-31T02:08:10.608Z,53.63
2022-07-31T02:10:41.206Z,53.27
2022-07-31T02:13:11.014Z,53.20
2022-07-31T02:15:39.027Z,52.96
2022-07-31T02:18:07.850Z,53.08
2022-07-31T02:20:36.899Z,52.45
2022-07-31T02:23:04.662Z,52.14
2022-07-31T02:25:35.889Z,52.15
2022-07-31T02:28:09.457Z,52.57
2022-07-31T02:30:39.964Z,51.35
2022-07-31T02:33:23.009Z,52.33
2022-07-31T02:35:54.173Z,51.35
2022-07-31T02:38:26.631Z,50.95
2022-07-31T02:40:59.467Z,51.19
2022-07-31T02:43:31.526Z,50.42
2022-07-31T02:46:03.809Z,49.85
2022-07-31T02:48:32.809Z,50.14
2022-07-31T02:51:04.931Z,49.96
2022-07-31T02:53:33.961Z,49.60
2022-07-31T02:56:05.069Z,49.21
2022-07-31T02:58:39.226Z,49.27
2022-07-31T03:01:06.942Z,48.56
2022-07-31T03:03:36.006Z,48.29
2022-07-31T03:06:03.953Z,47.90
2022-07-31T03:08:31.733Z,47.37
2022-07-31T03:11:03.949Z,46.82
2022-07-31T03:13:33.899Z,46.44
2022-07-31T03:16:04.659Z,45.78
2022-07-31T03:18:32.842Z,45.33
2022-07-31T03:21:00.298Z,45.15
2022-07-31T03:23:36.411Z,44.71
2022-07-31T03:26:10.804Z,44.29
2022-07-31T03:28:39.142Z,43.40
2022-07-31T03:31:10.862Z,43.31
2022-07-31T03:33:38.272Z,43.19
2022-07-31T03:36:06.157Z,42.95
2022-07-31T03:38:41.478Z,42.62
2022-07-31T03:41:16.732Z,42.09
2022-07-31T03:43:47.802Z,41.56
2022-07-31T03:46:23.885Z,40.65
2022-07-31T03:48:52.961Z,40.48
2022-07-31T03:51:22.478Z,39.60
2022-07-31T03:53:51.785Z,38.95
2022-07-31T03:56:45.954Z,38.65
2022-07-31T03:59:17.158Z,37.80
2022-07-31T04:01:58.018Z,37.18
2022-07-31T04:04:41.203Z,36.67
2022-07-31T04:07:08.946Z,36.43
2022-07-31T04:09:37.223Z,35.85
2022-07-31T04:12:06.293Z,35.40
2022-07-31T04:14:34.207Z,34.88
2022-07-31T04:17:01.921Z,33.83
2022-07-31T04:19:32.896Z,33.47
2022-07-31T04:22:00.983Z,32.52
2022-07-31T04:24:28.577Z,31.89
2022-07-31T04:27:17.697Z,31.55
2022-07-31T04:29:46.411Z,31.45
2022-07-31T04:32:15.663Z,30.62
2022-07-31T04:35:05.534Z,30.22
2022-07-31T04:37:33.774Z,30.31
2022-07-31T04:40:01.306Z,29.87
2022-07-31T04:42:28.947Z,29.12
2022-07-31T04:45:01.206Z,28.50
2022-07-31T04:47:30.471Z,27.92
2022-07-31T04:49:59.020Z,26.43
2022-07-31T04:52:27.528Z,26.52
2022-07-31T04:54:57.296Z,26.08
2022-07-31T04:57:25.214Z,25.49
2022-07-31T04:59:58.642Z,25.79
2022-07-31T05:02:32.700Z,25.00
2022-07-31T05:05:00.346Z,24.18
2022-07-31T05:07:33.021Z,24.16
2022-07-31T05:10:05.931Z,23.49
2022-07-31T05:12:33.691Z,23.19
2022-07-31T05:15:01.215Z,23.27
2022-07-31T05:17:31.207Z,23.39
2022-07-31T05:20:16.533Z,23.25
2022-07-31T05:23:06.443Z,22.81
2022-07-31T05:25:52.723Z,22.66
2022-07-31T05:28:29.920Z,22.24
2022-07-31T05:30:58.890Z,22.20
2022-07-31T05:33:27.347Z,22.02
2022-07-31T05:35:56.318Z,21.86
2022-07-31T05:38:23.964Z,21.29
2022-07-31T05:41:11.769Z,21.44
2022-07-31T05:44:01.999Z,21.84
2022-07-31T05:46:45.864Z,21.48
2022-07-31T05:49:13.719Z,21.65
2022-07-31T05:51:44.795Z,21.56
2022-07-31T05:54:12.549Z,21.71
2022-07-31T05:56:58.398Z,21.55
2022-07-31T05:59:33.170Z,21.30
2022-07-31T06:02:00.789Z,21.34
2022-07-31T06:04:29.458Z,20.98
2022-07-31T06:06:56.900Z,20.40
2022-07-31T06:09:25.069Z,20.57
2022-07-31T06:11:53.900Z,20.44
2022-07-31T06:14:21.263Z,20.04
2022-07-31T06:17:07.941Z,20.73
2022-07-31T06:19:37.224Z,20.33
2022-07-31T06:22:04.965Z,20.08
2022-07-31T06:24:33.908Z,20.07
2022-07-31T06:27:02.889Z,20.22
2022-07-31T06:29:41.263Z,20.29
2022-07-31T06:32:12.602Z,20.29
2022-07-31T06:34:41.153Z,20.46
2022-07-31T06:37:09.070Z,20.79
2022-07-31T06:39:54.357Z,20.74
2022-07-31T06:42:46.286Z,21.01
2022-07-31T06:45:25.097Z,21.55
2022-07-31T06:48:27.020Z,21.45
2022-07-31T06:51:29.095Z,22.01
2022-07-31T06:53:52.222Z,22.06
2022-07-31T06:56:20.997Z,22.16
2022-07-31T06:58:48.830Z,22.26
2022-07-31T07:01:16.359Z,21.96
2022-07-31T07:03:43.876Z,22.16
2022-07-31T07:06:11.645Z,22.13
2022-07-31T07:08:39.132Z,21.63
2022-07-31T07:11:11.455Z,21.84
2022-07-31T07:13:46.050Z,21.77
2022-07-31T07:16:18.100Z,22.10
2022-07-31T07:18:45.884Z,22.30
2022-07-31T07:21:13.718Z,22.43
2022-07-31T07:23:41.487Z,22.68
2022-07-31T07:26:19.098Z,22.93
2022-07-31T07:28:46.591Z,23.30
2022-07-31T07:31:14.093Z,22.95
2022-07-31T07:33:42.903Z,23.23
2022-07-31T07:36:24.155Z,23.13
2022-07-31T07:39:09.730Z,23.10
2022-07-31T07:41:38.987Z,23.04
2022-07-31T07:44:07.604Z,23.55
2022-07-31T07:46:35.374Z,23.61
2022-07-31T07:49:05.191Z,23.92
2022-07-31T07:52:10.089Z,24.01
2022-07-31T07:54:41.152Z,24.22
2022-07-31T07:57:31.782Z,24.35
2022-07-31T08:00:18.236Z,24.43
2022-07-31T08:03:46.803Z,24.70
2022-07-31T08:05:42.287Z,24.82
2022-07-31T08:08:10.505Z,25.02
2022-07-31T08:10:49.824Z,25.29
2022-07-31T08:13:28.447Z,25.37
2022-07-31T08:16:14.405Z,25.27
2022-07-31T08:18:44.639Z,25.91
2022-07-31T08:21:12.305Z,26.14
2022-07-31T08:23:39.792Z,25.92
2022-07-31T08:26:11.428Z,26.53
2022-07-31T08:28:39.381Z,26.11
2022-07-31T08:31:06.971Z,26.09
2022-07-31T08:33:44.816Z,25.95
2022-07-31T08:36:12.881Z,26.39
2022-07-31T08:38:40.247Z,26.20
2022-07-31T08:41:39.030Z,26.18
2022-07-31T08:44:07.877Z,26.18
2022-07-31T08:46:40.090Z,26.84
2022-07-31T08:49:11.229Z,26.72
2022-07-31T08:51:51.121Z,27.22
2022-07-31T08:54:35.998Z,26.86
2022-07-31T08:57:05.371Z,26.73
2022-07-31T08:59:44.268Z,26.68
2022-07-31T09:02:13.349Z,26.72
2022-07-31T09:04:57.473Z,26.58
2022-07-31T09:07:24.882Z,26.63
2022-07-31T09:09:52.634Z,26.64
2022-07-31T09:12:33.680Z,26.88
2022-07-31T09:15:25.210Z,26.82
2022-07-31T09:17:54.370Z,26.90
2022-07-31T09:20:26.270Z,26.56
2022-07-31T09:23:10.272Z,26.81
2022-07-31T09:25:57.315Z,26.84
2022-07-31T09:28:52.737Z,26.85
2022-07-31T09:31:20.969Z,27.22
2022-07-31T09:33:58.551Z,27.09
2022-07-31T09:36:46.320Z,27.16
2022-07-31T09:39:32.483Z,26.99
2022-07-31T09:42:23.713Z,26.96
2022-07-31T09:44:58.278Z,26.90
2022-07-31T09:47:32.932Z,26.60
2022-07-31T09:50:05.589Z,26.61
2022-07-31T09:52:33.703Z,26.81
2022-07-31T09:55:15.866Z,27.03
2022-07-31T09:58:00.560Z,26.62
2022-07-31T10:00:34.762Z,27.02
2022-07-31T10:03:04.326Z,27.09
2022-07-31T10:05:33.314Z,27.39
2022-07-31T10:08:03.161Z,27.38
2022-07-31T10:10:53.685Z,27.03
2022-07-31T10:13:27.636Z,27.18
2022-07-31T10:16:00.245Z,27.12
2022-07-31T10:19:04.276Z,27.48
2022-07-31T10:22:00.087Z,27.60
2022-07-31T10:24:33.621Z,27.60
2022-07-31T10:27:09.132Z,27.79
2022-07-31T10:29:42.356Z,28.36
2022-07-31T10:32:10.573Z,28.60
2022-07-31T10:34:58.206Z,29.17
2022-07-31T10:37:53.750Z,29.09
2022-07-31T10:41:04.209Z,30.09
2022-07-31T10:43:55.640Z,29.10
2022-07-31T10:46:39.630Z,30.76
2022-07-31T10:49:16.184Z,30.73
2022-07-31T10:52:07.125Z,31.72
2022-07-31T10:54:44.853Z,31.79
2022-07-31T10:57:55.234Z,31.77
2022-07-31T11:00:46.277Z,32.75
2022-07-31T11:03:46.623Z,31.91
2022-07-31T11:06:25.090Z,31.57
2022-07-31T11:08:57.777Z,31.61
2022-07-31T11:12:00.431Z,31.78
2022-07-31T11:14:39.196Z,31.96
2022-07-31T11:18:25.198Z,31.49
2022-07-31T11:20:32.584Z,31.48
2022-07-31T11:23:01.780Z,31.25
2022-07-31T11:25:31.001Z,31.26
2022-07-31T11:28:10.104Z,31.02
2022-07-31T11:30:57.208Z,30.30
2022-07-31T11:33:42.936Z,29.64
2022-07-31T11:36:25.072Z,30.26
2022-07-31T11:38:54.378Z,29.47
2022-07-31T11:41:22.879Z,29.56
2022-07-31T11:43:52.112Z,28.69
2022-07-31T11:46:26.249Z,29.04
2022-07-31T11:48:57.456Z,28.82
2022-07-31T11:51:26.832Z,28.37
2022-07-31T11:53:57.302Z,28.78
2022-07-31T11:56:27.673Z,28.85
2022-07-31T11:58:57.725Z,28.94
2022-07-31T12:01:29.929Z,28.98
2022-07-31T12:04:01.617Z,29.43
2022-07-31T12:06:38.789Z,30.54
2022-07-31T12:09:06.437Z,31.02
2022-07-31T12:11:34.322Z,32.23
2022-07-31T12:14:01.962Z,32.12
2022-07-31T12:16:40.520Z,32.28
2022-07-31T12:19:08.140Z,33.42
2022-07-31T12:21:40.777Z,34.39
2022-07-31T12:24:13.606Z,34.12
2022-07-31T12:26:49.183Z,35.48
2022-07-31T12:29:16.711Z,35.51
2022-07-31T12:31:50.527Z,36.28
2022-07-31T12:34:34.221Z,35.65
2022-07-31T12:37:04.559Z,36.23
2022-07-31T12:39:54.493Z,35.44
2022-07-31T12:42:31.252Z,35.52
2022-07-31T12:45:19.370Z,35.93
2022-07-31T12:47:51.559Z,36.38
2022-07-31T12:50:25.026Z,36.38
2022-07-31T12:52:53.618Z,36.80
2022-07-31T12:55:21.185Z,37.53
2022-07-31T12:57:51.402Z,37.77
2022-07-31T13:00:23.283Z,38.05
2022-07-31T13:02:55.903Z,38.51
2022-07-31T13:05:24.029Z,38.95
2022-07-31T13:07:51.926Z,40.04
2022-07-31T13:10:23.934Z,40.79
2022-07-31T13:12:53.730Z,40.49
2022-07-31T13:15:29.879Z,40.59
2022-07-31T13:17:59.715Z,40.53
2022-07-31T13:20:27.274Z,40.52
2022-07-31T13:22:54.715Z,40.76
2022-07-31T13:25:22.274Z,40.32
2022-07-31T13:27:49.646Z,39.68
2022-07-31T13:30:17.136Z,40.40
2022-07-31T13:32:44.643Z,41.00
2022-07-31T13:35:26.958Z,40.70
2022-07-31T13:37:55.782Z,41.18
2022-07-31T13:40:43.416Z,41.35
2022-07-31T13:43:11.370Z,41.50
2022-07-31T13:45:38.965Z,41.41
2022-07-31T13:48:09.200Z,41.48
2022-07-31T13:50:41.676Z,41.97
2022-07-31T13:53:10.159Z,42.32
2022-07-31T13:55:37.851Z,42.54
2022-07-31T13:58:05.483Z,43.02
2022-07-31T14:00:32.975Z,42.92
2022-07-31T14:03:00.536Z,43.49
2022-07-31T14:05:28.329Z,43.91
2022-07-31T14:07:56.475Z,43.44
2022-07-31T14:10:48.416Z,43.56
2022-07-31T14:13:19.148Z,43.50
2022-07-31T14:15:47.694Z,43.42
2022-07-31T14:18:16.032Z,42.98
2022-07-31T14:20:43.580Z,43.50
2022-07-31T14:23:11.050Z,43.17
2022-07-31T14:25:39.855Z,43.72
2022-07-31T14:28:09.000Z,43.56
2022-07-31T14:30:37.631Z,43.54
2022-07-31T14:33:05.421Z,43.47
2022-07-31T14:35:33.872Z,43.81
2022-07-31T14:38:04.239Z,43.39
2022-07-31T14:40:32.128Z,43.75
2022-07-31T14:42:59.906Z,43.58
2022-07-31T14:45:27.498Z,43.11
2022-07-31T14:47:56.232Z,43.48
2022-07-31T14:50:24.539Z,43.87
2022-07-31T14:52:52.155Z,44.13
2022-07-31T14:55:23.703Z,44.57
2022-07-31T14:57:52.384Z,44.19
2022-07-31T15:00:20.222Z,44.54
2022-07-31T15:02:49.661Z,44.38
2022-07-31T15:06:39.222Z,43.87
2022-07-31T15:08:04.986Z,44.34
2022-07-31T15:10:32.601Z,44.20
2022-07-31T15:13:00.257Z,44.40
2022-07-31T15:15:28.409Z,44.38
2022-07-31T15:17:56.304Z,44.43
2022-07-31T15:20:32.610Z,44.50
2022-07-31T15:23:01.918Z,44.86
2022-07-31T15:25:29.713Z,45.70
2022-07-31T15:27:57.328Z,45.30
2022-07-31T15:30:24.990Z,45.45
2022-07-31T15:32:53.528Z,45.89
2022-07-31T15:35:21.215Z,45.57
2022-07-31T15:37:49.811Z,45.39
2022-07-31T15:40:17.898Z,45.64
2022-07-31T15:42:47.195Z,45.95
2022-07-31T15:45:17.002Z,46.13
2022-07-31T15:47:45.572Z,45.78
2022-07-31T15:50:15.435Z,45.92
2022-07-31T15:52:43.146Z,46.24
2022-07-31T15:55:11.972Z,46.26
2022-07-31T15:57:39.521Z,45.59
2022-07-31T16:00:10.650Z,46.50
2022-07-31T16:02:42.695Z,46.74
2022-07-31T16:05:23.988Z,46.84
2022-07-31T16:08:33.443Z,46.02
2022-07-31T16:10:48.221Z,46.30
2022-07-31T16:13:18.688Z,46.99
2022-07-31T16:15:46.232Z,46.82
2022-07-31T16:18:18.074Z,46.90
2022-07-31T16:20:46.231Z,47.59
2022-07-31T16:23:13.714Z,47.37
2022-07-31T16:25:41.371Z,47.45
2022-07-31T16:28:08.796Z,47.74
2022-07-31T16:30:36.332Z,47.16
2022-07-31T16:33:03.891Z,47.12
2022-07-31T16:35:31.333Z,47.58
2022-07-31T16:37:58.769Z,47.80
2022-07-31T16:40:30.814Z,47.79
2022-07-31T16:43:47.392Z,48.02
2022-07-31T16:45:53.306Z,47.70
2022-07-31T16:48:21.020Z,47.79
2022-07-31T16:50:52.999Z,48.32
2022-07-31T16:54:11.337Z,48.83
2022-07-31T16:56:14.760Z,44.64
2022-07-31T16:58:44.211Z,48.20
2022-07-31T17:01:53.941Z,48.92
2022-07-31T17:04:03.827Z,48.57
2022-07-31T17:06:36.459Z,49.13
2022-07-31T17:09:16.569Z,45.50
2022-07-31T17:11:51.324Z,48.98
2022-07-31T17:14:23.980Z,47.91
2022-07-31T17:16:53.831Z,47.95
2022-07-31T17:19:42.301Z,48.44
2022-07-31T17:22:17.488Z,47.81
2022-07-31T17:24:51.295Z,45.40
2022-07-31T17:27:20.294Z,48.08
2022-07-31T17:29:47.995Z,48.22
2022-07-31T17:32:17.732Z,48.98
2022-07-31T17:34:46.599Z,49.00
2022-07-31T17:37:14.352Z,49.76
2022-07-31T17:39:41.878Z,50.89
2022-07-31T17:42:09.848Z,50.96
2022-07-31T17:44:39.849Z,51.47
2022-07-31T17:47:08.418Z,52.20
2022-07-31T17:49:36.845Z,52.98
2022-07-31T17:52:04.846Z,53.25
2022-07-31T17:54:34.729Z,54.36
2022-07-31T17:57:03.322Z,55.15
2022-07-31T17:59:31.144Z,56.13
2022-07-31T18:02:04.225Z,56.44
2022-07-31T18:04:35.359Z,58.02
2022-07-31T18:07:04.561Z,57.46
2022-07-31T18:09:32.762Z,58.49
2022-07-31T18:12:00.371Z,58.47
2022-07-31T18:14:28.195Z,59.06
2022-07-31T18:16:55.826Z,59.14
2022-07-31T18:19:23.400Z,59.86
2022-07-31T18:21:51.623Z,60.19
2022-07-31T18:24:20.672Z,62.03
2022-07-31T18:26:49.476Z,60.60
2022-07-31T18:29:18.000Z,60.39
2022-07-31T18:31:45.937Z,60.51
2022-07-31T18:34:14.136Z,62.97
2022-07-31T18:36:41.898Z,62.50
2022-07-31T18:39:09.528Z,62.35
2022-07-31T18:41:40.029Z,63.56
2022-07-31T18:44:07.698Z,63.61
2022-07-31T18:46:35.756Z,64.52
2022-07-31T18:49:04.803Z,64.19
2022-07-31T18:51:32.934Z,64.37
2022-07-31T18:54:01.682Z,64.96
2022-07-31T18:56:29.342Z,66.00
2022-07-31T18:58:57.273Z,66.45
2022-07-31T19:01:24.855Z,67.04
2022-07-31T19:03:53.477Z,67.44
2022-07-31T19:06:22.885Z,68.78
2022-07-31T19:08:52.373Z,70.37
2022-07-31T19:11:20.557Z,68.60
2022-07-31T19:13:48.387Z,67.88
2022-07-31T19:16:17.762Z,68.13
2022-07-31T19:18:45.746Z,68.41
2022-07-31T19:21:41.167Z,67.35
2022-07-31T19:24:06.650Z,71.37
2022-07-31T19:26:34.125Z,69.47
2022-07-31T19:29:01.542Z,70.11
2022-07-31T19:31:29.027Z,72.34
2022-07-31T19:33:56.535Z,72.57
2022-07-31T19:36:23.990Z,73.34
2022-07-31T19:38:51.453Z,74.83
2022-07-31T19:41:19.005Z,74.20
2022-07-31T19:43:46.730Z,74.22
2022-07-31T19:46:14.114Z,74.37
2022-07-31T19:48:46.258Z,76.12
2022-07-31T19:51:14.743Z,75.64
2022-07-31T19:53:43.071Z,76.79
2022-07-31T19:58:41.400Z,77.50
2022-07-31T20:01:10.758Z,78.29
2022-07-31T20:03:38.354Z,76.13
2022-07-31T20:06:06.651Z,77.45
2022-07-31T20:08:34.674Z,79.87
2022-07-31T20:11:04.536Z,79.04
2022-07-31T20:13:37.982Z,82.32
2022-07-31T20:16:05.760Z,77.92
2022-07-31T20:18:33.253Z,78.94
2022-07-31T20:21:07.550Z,81.92
2022-07-31T20:23:38.941Z,81.28
2022-07-31T20:26:08.517Z,81.92
2022-07-31T20:28:36.254Z,81.76
2022-07-31T20:31:03.874Z,80.59
2022-07-31T20:33:31.358Z,81.11
2022-07-31T20:35:58.787Z,81.34
2022-07-31T20:40:55.833Z,82.73
2022-07-31T20:43:25.365Z,80.53
2022-07-31T20:45:53.845Z,80.08
2022-07-31T20:48:24.605Z,79.20
2022-07-31T20:50:52.659Z,78.95
2022-07-31T20:53:21.178Z,78.05
2022-07-31T20:55:50.561Z,78.91
2022-07-31T20:58:19.817Z,79.86
2022-07-31T21:00:48.759Z,81.12
2022-07-31T21:03:17.309Z,78.84
2022-07-31T21:05:45.783Z,77.38
2022-07-31T21:08:13.320Z,76.68
2022-07-31T21:10:40.829Z,76.42
2022-07-31T21:13:08.617Z,75.11
2022-07-31T21:15:41.938Z,75.77
2022-07-31T21:18:19.199Z,76.31
2022-07-31T21:20:51.615Z,75.70
2022-07-31T21:23:20.305Z,73.23
2022-07-31T21:25:48.260Z,73.02
2022-07-31T21:28:15.890Z,73.80
2022-07-31T21:30:43.479Z,73.99
2022-07-31T21:33:11.039Z,73.92
2022-07-31T21:35:40.287Z,73.25
2022-07-31T21:38:12.739Z,73.14
2022-07-31T21:40:40.749Z,72.70
2022-07-31T21:43:09.703Z,72.68
2022-07-31T21:45:50.980Z,73.78
2022-07-31T21:48:25.787Z,73.59
2022-07-31T21:50:54.719Z,73.62
2022-07-31T21:53:23.497Z,73.27
2022-07-31T21:55:51.309Z,72.83
2022-07-31T21:58:19.053Z,73.27
2022-07-31T22:00:46.650Z,72.39
2022-07-31T22:03:14.205Z,72.28
2022-07-31T22:05:59.962Z,71.99
2022-07-31T22:08:27.662Z,71.93
2022-07-31T22:10:55.151Z,72.33
2022-07-31T22:13:22.622Z,71.73
2022-07-31T22:15:58.439Z,71.94
2022-07-31T22:18:30.766Z,73.64
2022-07-31T22:23:27.750Z,73.34
2022-07-31T22:25:55.516Z,71.99
2022-07-31T22:28:24.420Z,73.57
2022-07-31T22:30:52.820Z,73.09
2022-07-31T22:33:21.274Z,72.76
2022-07-31T22:35:59.586Z,73.35
2022-07-31T22:38:29.140Z,73.67
2022-07-31T22:40:57.409Z,73.31
2022-07-31T22:44:10.710Z,72.92
2022-07-31T22:46:13.398Z,74.06
2022-07-31T22:48:41.345Z,73.07
2022-07-31T22:51:14.247Z,73.02
2022-07-31T22:53:42.105Z,73.80
2022-07-31T22:56:09.606Z,72.71
2022-07-31T22:58:37.111Z,73.73
2022-07-31T23:01:04.504Z,73.58
2022-07-31T23:03:31.993Z,73.26
2022-07-31T23:06:02.585Z,73.62
2022-07-31T23:08:55.058Z,75.92
2022-07-31T23:11:24.876Z,74.09
2022-07-31T23:13:52.541Z,74.55
2022-07-31T23:16:20.670Z,74.24
2022-07-31T23:18:48.812Z,72.89
2022-07-31T23:21:17.395Z,72.94
2022-07-31T23:23:48.998Z,73.63
2022-07-31T23:26:21.181Z,75.42
2022-07-31T23:28:48.928Z,73.84
2022-07-31T23:31:17.866Z,74.20
2022-07-31T23:33:46.038Z,73.01
2022-07-31T23:36:14.567Z,75.05
2022-07-31T23:38:43.125Z,75.27
2022-07-31T23:41:10.957Z,75.35
2022-07-31T23:43:38.558Z,75.76
2022-07-31T23:46:06.628Z,76.90
2022-07-31T23:48:37.234Z,77.97
2022-07-31T23:51:07.025Z,75.18
2022-07-31T23:53:34.401Z,74.56
2022-07-31T23:56:01.810Z,75.94
2022-07-31T23:58:29.518Z,75.50
